Time;durP1;ratioP1;P1;durP2;ratioP2;P2;SDS_P1;SDS_P2;PMS_P1;PMS_P2;Temp;Humidity;BMP_temperature;BMP_pressure;BME280_temperature;BME280_humidity;BME280_pressure;Samples;Min_cycle;Max_cycle;Signal;HPM_P1;HPM_P2
2022/09/07 00:00:06;;;;;;;26.02;14.85;;;;;;;9.95;64.57;100422.25;1723500;80;21428;-62
2022/09/07 00:02:32;;;;;;;26.82;14.98;;;;;;;9.93;64.58;100418.34;1742366;80;21537;-62
2022/09/07 00:04:59;;;;;;;25.88;14.73;;;;;;;9.97;64.84;100419.58;1720552;80;21751;-62
2022/09/07 00:07:26;;;;;;;22.90;15.80;;;;;;;9.99;64.31;100420.40;1737497;81;20969;-62
2022/09/07 00:09:52;;;;;;;27.45;15.78;;;;;;;9.94;64.18;100423.13;1740978;80;21525;-62
2022/09/07 00:12:19;;;;;;;27.77;15.40;;;;;;;9.87;64.56;100421.15;1729738;80;21490;-62
2022/09/07 00:14:46;;;;;;;25.70;15.30;;;;;;;9.85;64.32;100423.38;1726660;80;21598;-60
2022/09/07 00:17:12;;;;;;;24.50;15.28;;;;;;;9.84;64.11;100419.91;1729074;81;21865;-61
2022/09/07 00:19:39;;;;;;;23.00;14.85;;;;;;;9.80;64.35;100421.36;1733640;80;21593;-61
2022/09/07 00:22:05;;;;;;;27.95;17.15;;;;;;;9.79;64.30;100423.56;1722219;81;21572;-64
2022/09/07 00:24:32;;;;;;;24.10;16.10;;;;;;;9.78;64.59;100418.77;1730443;81;21006;-61
2022/09/07 00:26:58;;;;;;;32.95;16.48;;;;;;;9.82;64.46;100420.41;1737046;80;21525;-61
2022/09/07 00:29:25;;;;;;;21.07;15.18;;;;;;;9.86;65.66;100413.30;1741769;80;21836;-61
2022/09/07 00:31:52;;;;;;;24.05;15.65;;;;;;;9.89;65.45;100418.48;1726844;81;21692;-61
2022/09/07 00:34:18;;;;;;;22.80;15.58;;;;;;;9.87;65.86;100416.32;1731066;81;21484;-61
2022/09/07 00:36:45;;;;;;;25.37;15.53;;;;;;;9.85;66.37;100413.77;1738469;80;21037;-62
2022/09/07 00:39:11;;;;;;;25.45;15.98;;;;;;;9.82;66.04;100411.67;1737729;80;20985;-62
2022/09/07 00:41:38;;;;;;;28.20;15.95;;;;;;;9.83;65.47;100408.12;1729612;80;21899;-62
2022/09/07 00:45:01;;;;;;;23.20;15.23;;;;;;;9.87;64.61;100401.88;1738866;81;21549;-64
2022/09/07 00:47:42;;;;;;;21.05;13.98;;;;;;;9.98;63.84;100405.06;1712017;81;21521;-62
2022/09/07 00:50:17;;;;;;;19.40;11.80;;;;;;;10.13;62.77;100404.66;1721205;80;21586;-62
2022/09/07 00:52:45;;;;;;;19.82;12.60;;;;;;;10.24;62.53;100399.06;1723452;81;21419;-62
2022/09/07 00:55:12;;;;;;;;;;;;;;;10.34;62.06;100399.71;1726493;81;22182;-62
2022/09/07 00:57:41;;;;;;;;;;;;;;;10.41;62.96;100398.59;1718273;82;20402;-62
2022/09/07 01:00:09;;;;;;;17.20;10.82;;;;;;;10.43;63.68;100395.46;1712628;80;20683;-62
2022/09/07 01:02:36;;;;;;;19.00;11.35;;;;;;;10.43;61.36;100398.09;1727233;80;21502;-62
2022/09/07 01:05:14;;;;;;;17.15;11.12;;;;;;;10.46;61.48;100392.75;1733807;80;21498;-61
2022/09/07 01:07:43;;;;;;;18.90;11.80;;;;;;;10.47;61.42;100394.92;1717792;81;21511;-60
2022/09/07 01:10:09;;;;;;;17.12;11.25;;;;;;;10.45;61.31;100391.48;1722536;81;21498;-60
2022/09/07 01:12:36;;;;;;;17.90;12.07;;;;;;;10.41;61.65;100385.45;1718116;81;21458;-61
2022/09/07 01:15:04;;;;;;;22.55;12.63;;;;;;;10.38;61.76;100389.51;1724548;80;21539;-60
2022/09/07 01:17:46;;;;;;;21.95;13.30;;;;;;;10.37;62.03;100378.57;1719984;80;21629;-60
2022/09/07 01:20:36;;;;;;;19.62;12.93;;;;;;;10.31;62.11;100387.50;1713490;81;21807;-62
2022/09/07 01:23:33;;;;;;;19.15;13.32;;;;;;;10.17;62.76;100383.52;1725243;80;21543;-61
2022/09/07 01:26:22;;;;;;;20.17;13.27;;;;;;;10.00;63.10;100385.33;1708778;80;21124;-62
2022/09/07 01:28:52;;;;;;;18.98;12.47;;;;;;;9.81;63.49;100379.73;1729095;80;21213;-59
2022/09/07 01:31:30;;;;;;;17.37;11.63;;;;;;;9.71;64.21;100378.67;1718638;81;21466;-62
2022/09/07 01:34:12;;;;;;;;;;;;;;;9.67;64.41;100384.91;1715876;81;21857;-61
2022/09/07 01:37:10;;;;;;;14.15;10.25;;;;;;;9.66;66.04;100383.21;1711087;80;20496;-61
2022/09/07 01:39:49;;;;;;;19.45;11.18;;;;;;;9.62;64.66;100388.11;1718929;80;21479;-61
2022/09/07 01:42:17;;;;;;;16.42;9.68;;;;;;;9.55;64.47;100380.02;1717498;82;21625;-62
2022/09/07 01:44:49;;;;;;;13.80;8.38;;;;;;;9.50;65.78;100374.02;1723631;81;21502;-62
2022/09/07 01:47:32;;;;;;;13.45;8.58;;;;;;;9.60;66.70;100378.56;1719835;80;21823;-61
2022/09/07 01:50:26;;;;;;;10.58;8.20;;;;;;;9.75;67.01;100378.98;1693844;82;21446;-63
2022/09/07 01:53:08;;;;;;;11.63;7.62;;;;;;;9.80;67.22;100377.56;1730516;80;21632;-61
2022/09/07 01:55:46;;;;;;;11.73;7.15;;;;;;;9.88;66.81;100378.20;1726500;80;21493;-62
2022/09/07 01:58:24;;;;;;;10.28;7.28;;;;;;;9.98;65.94;100377.48;1730318;80;21607;-61
2022/09/07 02:00:59;;;;;;;10.82;6.80;;;;;;;10.03;65.00;100372.96;1713316;82;21787;-61
2022/09/07 02:03:34;;;;;;;7.50;5.90;;;;;;;10.09;64.55;100371.46;1727487;81;21092;-61
2022/09/07 02:06:15;;;;;;;7.92;5.92;;;;;;;10.15;63.83;100370.42;1730128;81;21735;-62
2022/09/07 02:08:55;;;;;;;8.33;5.97;;;;;;;10.23;63.57;100368.91;1736938;80;21537;-63
2022/09/07 02:11:36;;;;;;;9.53;5.97;;;;;;;10.30;63.30;100362.53;1718267;82;21459;-62
2022/09/07 02:14:33;;;;;;;7.47;5.22;;;;;;;10.30;62.77;100364.77;1723938;80;21811;-61
2022/09/07 02:17:08;;;;;;;7.58;5.20;;;;;;;10.29;62.71;100363.00;1718282;81;21421;-62
2022/09/07 02:19:40;;;;;;;7.40;5.25;;;;;;;10.25;62.83;100365.31;1731925;80;21065;-64
2022/09/07 02:22:12;;;;;;;9.18;4.70;;;;;;;10.22;62.73;100363.23;1719036;81;21478;-62
2022/09/07 02:24:42;;;;;;;7.60;5.15;;;;;;;10.19;62.95;100361.57;1720894;81;21575;-62
2022/09/07 02:27:13;;;;;;;10.00;5.10;;;;;;;10.14;63.26;100360.84;1694219;82;22095;-62
2022/09/07 02:29:42;;;;;;;6.87;5.08;;;;;;;10.15;63.23;100361.22;1743404;80;21435;-62
2022/09/07 02:32:08;;;;;;;6.40;4.67;;;;;;;10.18;63.03;100356.35;1698376;82;21466;-62
2022/09/07 02:34:36;;;;;;;;;;;;;;;10.17;63.23;100346.73;1722451;82;21053;-62
2022/09/07 02:37:04;;;;;;;5.28;4.15;;;;;;;10.18;64.17;100356.35;1717650;82;20463;-63
2022/09/07 02:39:32;;;;;;;7.92;4.45;;;;;;;10.16;63.38;100352.91;1730571;80;21559;-63
2022/09/07 02:41:59;;;;;;;7.05;4.97;;;;;;;10.18;63.32;100345.37;1720855;80;21631;-62
2022/09/07 02:44:33;;;;;;;7.50;4.87;;;;;;;10.22;63.02;100345.69;1723766;81;21619;-62
2022/09/07 02:47:33;;;;;;;10.98;5.55;;;;;;;10.22;63.08;100348.78;1727382;81;21446;-60
2022/09/07 02:50:22;;;;;;;6.78;4.60;;;;;;;10.21;63.04;100347.04;1735007;80;21529;-61
2022/09/07 02:53:12;;;;;;;8.03;4.67;;;;;;;10.18;63.11;100348.47;1732589;81;21557;-60
2022/09/07 02:56:10;;;;;;;7.25;5.12;;;;;;;10.16;63.25;100358.16;1733741;80;21521;-61
2022/09/07 02:59:01;;;;;;;6.72;4.28;;;;;;;10.09;63.38;100350.91;1728965;81;21613;-60
2022/09/07 03:02:06;;;;;;;7.65;4.80;;;;;;;10.07;63.32;100350.94;1734842;80;21048;-61
2022/09/07 03:04:50;;;;;;;6.12;4.37;;;;;;;10.07;63.43;100354.88;1724662;81;21557;-60
2022/09/07 03:07:25;;;;;;;6.72;3.90;;;;;;;10.02;63.46;100348.92;1729264;81;21973;-62
2022/09/07 03:09:53;;;;;;;4.72;3.20;;;;;;;10.00;64.46;100349.86;1739501;80;21431;-62
2022/09/07 03:12:20;;;;;;;;;;;;;;;10.04;65.12;100348.86;1729947;80;21435;-61
2022/09/07 03:14:47;;;;;;;4.15;3.02;;;;;;;10.04;65.43;100345.80;1733161;80;20449;-63
2022/09/07 03:17:13;;;;;;;3.65;2.52;;;;;;;10.08;64.38;100352.68;1734644;81;21498;-62
2022/09/07 03:19:40;;;;;;;2.60;2.40;;;;;;;10.12;64.34;100342.48;1734281;81;21796;-62
2022/09/07 03:22:07;;;;;;;8.28;3.12;;;;;;;10.19;63.72;100347.55;1734047;80;21006;-63
2022/09/07 03:24:35;;;;;;;4.20;3.05;;;;;;;10.18;63.48;100341.44;1729086;81;21499;-63
2022/09/07 03:27:02;;;;;;;4.72;3.00;;;;;;;10.22;63.18;100345.69;1730221;81;21080;-65
2022/09/07 03:29:29;;;;;;;5.78;3.30;;;;;;;10.27;62.77;100348.19;1731672;81;21057;-63
2022/09/07 03:31:55;;;;;;;4.10;3.00;;;;;;;10.26;62.64;100351.25;1739357;80;21839;-62
2022/09/07 03:34:22;;;;;;;4.92;3.42;;;;;;;10.23;62.64;100343.94;1743020;80;21482;-62
2022/09/07 03:36:48;;;;;;;6.67;3.20;;;;;;;10.14;62.75;100349.86;1739710;80;20945;-61
2022/09/07 03:39:19;;;;;;;4.00;3.33;;;;;;;10.06;63.01;100354.49;1736331;80;21517;-61
2022/09/07 03:41:43;;;;;;;3.52;3.22;;;;;;;10.03;62.98;100354.57;1737317;81;21607;-61
2022/09/07 03:44:10;;;;;;;6.00;3.72;;;;;;;10.03;62.73;100348.47;1733096;81;21826;-61
2022/09/07 03:46:37;;;;;;;4.15;3.33;;;;;;;10.04;62.61;100352.37;1710609;81;21518;-62
2022/09/07 03:49:04;;;;;;;6.83;3.65;;;;;;;10.04;62.52;100351.05;1730564;80;21538;-63
2022/09/07 03:51:31;;;;;;;4.23;3.83;;;;;;;10.07;62.41;100354.03;1729875;81;21104;-61
2022/09/07 03:53:59;;;;;;;5.30;3.83;;;;;;;10.06;62.49;100358.89;1737928;80;21526;-62
2022/09/07 03:56:26;;;;;;;4.00;3.60;;;;;;;10.07;62.38;100356.20;1732239;80;21697;-61
2022/09/07 03:58:53;;;;;;;6.95;3.62;;;;;;;10.10;62.21;100353.95;1734436;80;21414;-61
2022/09/07 04:01:22;;;;;;;4.47;3.80;;;;;;;10.11;61.98;100358.28;1736771;80;21474;-61
2022/09/07 04:03:49;;;;;;;7.03;4.12;;;;;;;10.08;62.27;100360.56;1727926;81;21615;-61
2022/09/07 04:06:15;;;;;;;5.35;3.77;;;;;;;10.09;62.28;100361.41;1728596;81;21499;-62
2022/09/07 04:08:43;;;;;;;7.65;4.03;;;;;;;10.08;62.35;100357.94;1708345;81;21859;-63
2022/09/07 04:11:13;;;;;;;5.17;3.58;;;;;;;10.12;62.23;100361.34;1732646;81;21538;-62
2022/09/07 04:13:41;;;;;;;4.20;3.58;;;;;;;10.13;62.11;100363.92;1725486;80;21495;-63
2022/09/07 04:16:21;;;;;;;5.20;4.12;;;;;;;10.13;62.38;100365.67;1730344;80;21494;-64
2022/09/07 04:18:53;;;;;;;6.53;4.15;;;;;;;10.08;63.00;100367.13;1748351;80;21498;-62
2022/09/07 04:21:21;;;;;;;5.17;4.00;;;;;;;10.10;63.51;100361.38;1682259;84;21887;-64
2022/09/07 04:23:48;;;;;;;5.92;4.03;;;;;;;10.11;63.90;100368.80;1667726;84;21026;-64
2022/09/07 04:26:21;;;;;;;5.87;3.90;;;;;;;10.15;64.00;100367.80;1683502;84;21689;-62
2022/09/07 04:28:48;;;;;;;5.28;4.20;;;;;;;10.17;63.85;100362.50;1674411;84;21077;-63
2022/09/07 04:31:17;;;;;;;5.55;4.17;;;;;;;10.22;63.53;100361.92;1695912;82;21547;-63
2022/09/07 04:33:45;;;;;;;6.00;4.12;;;;;;;10.26;63.19;100366.17;1679607;84;21760;-62
2022/09/07 04:36:12;;;;;;;5.17;3.98;;;;;;;10.32;62.72;100368.64;1680902;84;21579;-62
2022/09/07 04:38:41;;;;;;;5.12;4.45;;;;;;;10.36;62.59;100366.78;1682406;83;21533;-63
2022/09/07 04:41:16;;;;;;;5.03;4.50;;;;;;;10.36;62.25;100364.16;1682188;84;21048;-63
2022/09/07 04:43:44;;;;;;;6.53;3.55;;;;;;;10.40;62.15;100364.03;1683797;84;21448;-62
2022/09/07 04:46:18;;;;;;;5.67;3.92;;;;;;;10.44;62.01;100368.74;1682009;84;21902;-63
2022/09/07 04:48:53;;;;;;;5.28;3.87;;;;;;;10.54;61.66;100368.00;1679209;82;21492;-64
2022/09/07 04:51:21;;;;;;;9.03;4.03;;;;;;;10.62;61.52;100368.61;1729433;80;21522;-63
2022/09/07 04:53:49;;;;;;;6.40;3.98;;;;;;;10.70;61.47;100365.30;1718205;80;21605;-63
2022/09/07 04:56:16;;;;;;;4.35;3.80;;;;;;;10.77;61.28;100367.27;1719953;80;21495;-63
2022/09/07 04:58:44;;;;;;;5.95;3.80;;;;;;;10.87;61.00;100367.39;1724402;81;21984;-63
2022/09/07 05:01:12;;;;;;;7.87;4.28;;;;;;;10.96;60.84;100371.01;1733979;80;21629;-62
2022/09/07 05:03:39;;;;;;;5.50;4.35;;;;;;;11.05;60.70;100365.91;1736572;80;21555;-64
2022/09/07 05:06:07;;;;;;;8.47;4.20;;;;;;;11.12;60.67;100363.48;1722451;80;21090;-67
2022/09/07 05:08:44;;;;;;;4.95;4.10;;;;;;;11.21;60.43;100366.27;1716697;82;21663;-62
2022/09/07 05:11:12;;;;;;;5.12;3.87;;;;;;;11.37;60.21;100358.70;1726951;81;21771;-63
2022/09/07 05:13:38;;;;;;;4.42;4.03;;;;;;;11.53;59.94;100366.47;1714376;80;21495;-61
2022/09/07 05:16:10;;;;;;;5.12;3.98;;;;;;;11.67;59.62;100368.60;1717621;82;21511;-62
2022/09/07 05:18:38;;;;;;;4.55;3.87;;;;;;;11.80;59.50;100364.61;1713477;81;21506;-63
2022/09/07 05:21:13;;;;;;;5.08;3.85;;;;;;;11.98;58.94;100367.51;1714642;80;21423;-63
2022/09/07 05:23:40;;;;;;;6.30;3.50;;;;;;;12.13;58.70;100366.08;1729711;80;21893;-63
2022/09/07 05:26:09;;;;;;;7.03;3.50;;;;;;;12.31;58.23;100360.11;1723505;81;21046;-65
2022/09/07 05:28:36;;;;;;;5.22;3.83;;;;;;;12.46;57.42;100357.34;1727518;81;21578;-65
2022/09/07 05:31:06;;;;;;;3.93;3.23;;;;;;;12.61;57.13;100351.92;1720939;80;21448;-63
2022/09/07 05:33:33;;;;;;;4.65;3.20;;;;;;;12.76;56.80;100355.73;1728964;81;21617;-66
2022/09/07 05:36:00;;;;;;;4.58;2.98;;;;;;;12.91;56.20;100355.09;1717974;81;21949;-66
2022/09/07 05:38:27;;;;;;;5.08;3.27;;;;;;;13.01;55.78;100352.93;1724431;80;21618;-65
2022/09/07 05:40:54;;;;;;;3.80;3.17;;;;;;;13.17;55.87;100354.48;1721266;81;21527;-68
2022/09/07 05:43:20;;;;;;;3.15;2.80;;;;;;;13.31;55.81;100352.59;1724202;80;21472;-66
2022/09/07 05:45:47;;;;;;;4.17;2.72;;;;;;;13.42;55.54;100350.35;1716031;80;21471;-67
2022/09/07 05:48:14;;;;;;;5.00;2.65;;;;;;;13.56;54.77;100357.23;1721721;81;21786;-66
2022/09/07 05:50:50;;;;;;;2.67;2.47;;;;;;;13.67;54.23;100351.92;1723033;81;21533;-68
2022/09/07 05:53:20;;;;;;;4.12;2.55;;;;;;;13.74;53.82;100350.72;1733114;80;21553;-67
2022/09/07 05:55:49;;;;;;;4.12;2.90;;;;;;;13.89;53.45;100345.22;1723393;80;21514;-64
2022/09/07 05:58:17;;;;;;;3.60;2.72;;;;;;;13.96;52.97;100351.47;1724402;80;21597;-66
2022/09/07 06:00:44;;;;;;;4.72;3.02;;;;;;;14.01;52.26;100349.48;1734253;80;21810;-65
2022/09/07 06:03:11;;;;;;;3.22;2.87;;;;;;;14.06;51.97;100355.02;1728054;81;21510;-67
2022/09/07 06:05:38;;;;;;;3.83;2.85;;;;;;;14.12;51.75;100352.94;1717470;81;21073;-68
2022/09/07 06:08:05;;;;;;;3.42;2.65;;;;;;;14.21;51.63;100346.38;1722049;81;21491;-67
2022/09/07 06:10:36;;;;;;;4.58;3.30;;;;;;;14.30;51.33;100351.23;1725495;80;21632;-65
2022/09/07 06:13:03;;;;;;;6.53;3.50;;;;;;;14.40;50.97;100353.83;1728856;80;21877;-66
2022/09/07 06:15:33;;;;;;;3.10;2.80;;;;;;;14.46;50.43;100358.44;1729314;81;21471;-64
2022/09/07 06:18:00;;;;;;;7.33;3.10;;;;;;;14.54;50.10;100358.48;1732457;80;20994;-66
2022/09/07 06:20:26;;;;;;;4.12;3.05;;;;;;;14.61;49.52;100352.44;1730742;80;21105;-65
2022/09/07 06:22:53;;;;;;;3.77;2.62;;;;;;;14.65;48.96;100351.36;1734331;79;21423;-64
2022/09/07 06:25:20;;;;;;;4.60;2.95;;;;;;;14.76;48.96;100349.52;1740691;80;21991;-66
2022/09/07 06:27:48;;;;;;;4.83;3.02;;;;;;;14.90;48.52;100351.47;1739596;80;21072;-67
2022/09/07 06:30:15;;;;;;;5.60;2.80;;;;;;;15.04;48.02;100353.45;1740715;80;21574;-65
2022/09/07 06:32:42;;;;;;;3.77;2.72;;;;;;;15.18;48.00;100354.48;1738156;80;21555;-66
2022/09/07 06:35:10;;;;;;;4.08;2.83;;;;;;;15.27;47.64;100353.13;1742479;80;21481;-66
2022/09/07 06:37:38;;;;;;;6.42;3.15;;;;;;;15.36;47.31;100355.31;1732210;80;21719;-66
2022/09/07 06:40:07;;;;;;;3.40;2.55;;;;;;;15.48;46.69;100358.27;1742515;80;21573;-69
2022/09/07 06:42:34;;;;;;;4.05;2.80;;;;;;;15.55;46.33;100362.33;1733278;80;21579;-69
2022/09/07 06:45:03;;;;;;;2.70;2.50;;;;;;;15.64;46.14;100357.87;1733085;81;21057;-68
2022/09/07 06:47:30;;;;;;;4.80;2.52;;;;;;;15.77;45.56;100363.42;1730921;80;21577;-69
2022/09/07 06:49:57;;;;;;;4.40;2.73;;;;;;;15.86;44.89;100357.62;1728539;81;21800;-70
2022/09/07 06:52:26;;;;;;;3.87;2.50;;;;;;;15.94;44.85;100358.06;1729999;80;21569;-67
2022/09/07 06:54:53;;;;;;;5.00;2.47;;;;;;;16.08;44.59;100360.44;1724399;80;21077;-68
2022/09/07 06:57:20;;;;;;;2.35;2.00;;;;;;;16.15;43.84;100358.69;1733810;80;21497;-68
2022/09/07 06:59:47;;;;;;;2.93;2.30;;;;;;;16.17;43.57;100356.44;1733037;81;21093;-69
2022/09/07 07:02:14;;;;;;;3.20;2.70;;;;;;;16.27;43.36;100359.80;1735356;80;21792;-67
2022/09/07 07:04:41;;;;;;;3.25;2.77;;;;;;;16.33;43.02;100358.61;1734873;80;21474;-68
2022/09/07 07:07:10;;;;;;;3.20;2.90;;;;;;;16.41;42.64;100364.85;1730223;80;21582;-68
2022/09/07 07:09:37;;;;;;;5.90;3.12;;;;;;;16.44;42.59;100362.00;1735384;81;20947;-68
2022/09/07 07:12:04;;;;;;;4.63;2.60;;;;;;;16.53;42.58;100361.02;1730533;80;21609;-71
2022/09/07 07:14:31;;;;;;;5.42;2.77;;;;;;;16.62;42.26;100359.65;1728719;81;21866;-68
2022/09/07 07:16:58;;;;;;;3.27;2.70;;;;;;;16.75;41.80;100366.45;1727346;81;21518;-69
2022/09/07 07:19:24;;;;;;;3.17;2.45;;;;;;;16.82;41.82;100361.63;1726066;80;21458;-70
2022/09/07 07:21:51;;;;;;;2.50;2.27;;;;;;;16.91;41.41;100361.14;1727024;81;21542;-67
2022/09/07 07:24:17;;;;;;;3.00;2.50;;;;;;;17.01;41.18;100364.11;1736111;80;21901;-68
2022/09/07 07:26:47;;;;;;;5.65;2.90;;;;;;;17.12;40.79;100354.59;1736083;80;21747;-68
2022/09/07 07:29:14;;;;;;;2.58;2.35;;;;;;;17.15;40.64;100349.56;1725992;80;21522;-68
2022/09/07 07:31:41;;;;;;;5.43;2.50;;;;;;;17.21;40.28;100352.33;1733807;80;21475;-68
2022/09/07 07:34:07;;;;;;;4.35;2.60;;;;;;;17.31;40.20;100346.38;1730909;80;21680;-69
2022/09/07 07:36:34;;;;;;;5.08;3.02;;;;;;;17.39;39.97;100348.58;1731333;80;21049;-68
2022/09/07 07:39:03;;;;;;;5.72;2.87;;;;;;;17.48;39.97;100348.03;1731306;81;22178;-69
2022/09/07 07:41:30;;;;;;;3.17;2.80;;;;;;;17.58;39.86;100349.65;1736381;80;21498;-68
2022/09/07 07:43:58;;;;;;;5.10;3.42;;;;;;;17.68;39.64;100341.48;1730030;80;21617;-67
2022/09/07 07:46:26;;;;;;;3.00;2.70;;;;;;;17.80;39.43;100338.56;1738504;80;21431;-69
2022/09/07 07:48:53;;;;;;;2.25;2.05;;;;;;;17.87;38.88;100349.20;1735158;80;21621;-68
2022/09/07 07:51:19;;;;;;;2.42;2.02;;;;;;;17.90;38.13;100350.84;1722667;80;21584;-67
2022/09/07 07:53:46;;;;;;;4.25;2.25;;;;;;;17.86;37.88;100351.50;1741127;80;21870;-68
2022/09/07 07:56:13;;;;;;;3.90;2.15;;;;;;;17.86;37.94;100334.21;1741373;80;21432;-67
2022/09/07 07:58:45;;;;;;;4.57;2.13;;;;;;;18.00;37.47;100338.66;1731561;80;21486;-68
2022/09/07 08:01:15;;;;;;;2.02;1.80;;;;;;;17.98;37.21;100335.73;1729673;81;21541;-67
2022/09/07 08:03:46;;;;;;;1.75;1.65;;;;;;;17.94;36.87;100333.73;1734334;81;21644;-66
2022/09/07 08:06:15;;;;;;;1.70;1.50;;;;;;;17.85;36.62;100336.96;1720976;81;21462;-68
2022/09/07 08:08:44;;;;;;;1.77;1.20;;;;;;;17.89;36.44;100333.16;1727317;80;21466;-70
2022/09/07 08:11:15;;;;;;;1.90;1.77;;;;;;;17.90;36.26;100329.08;1737163;80;20994;-68
2022/09/07 08:13:44;;;;;;;4.58;2.25;;;;;;;17.83;35.87;100337.02;1729763;80;21478;-66
2022/09/07 08:16:11;;;;;;;3.27;2.30;;;;;;;17.75;36.00;100334.47;1723212;80;21881;-69
2022/09/07 08:18:39;;;;;;;3.62;2.60;;;;;;;17.73;36.01;100331.91;1737580;80;25543;-68
2022/09/07 08:21:11;;;;;;;3.50;2.60;;;;;;;17.79;36.10;100324.87;1727252;81;21455;-67
2022/09/07 08:23:38;;;;;;;4.35;2.62;;;;;;;17.85;35.99;100324.51;1749641;80;21706;-68
2022/09/07 08:28:52;;;;;;;2.77;2.50;;;;;;;18.00;34.05;100317.86;1851704;75;23401;-68
2022/09/07 08:31:18;;;;;;;5.75;2.30;;;;;;;17.97;35.28;100312.72;1809145;77;21524;-72
2022/09/07 08:33:45;;;;;;;3.02;2.47;;;;;;;18.05;35.65;100307.30;1795388;77;21851;-73
2022/09/07 08:36:15;;;;;;;2.55;2.35;;;;;;;18.07;35.48;100300.56;1763429;79;21596;-71
2022/09/07 08:38:42;;;;;;;2.52;2.30;;;;;;;18.04;35.54;100304.25;1769985;78;21509;-71
2022/09/07 08:41:35;;;;;;;4.83;2.55;;;;;;;18.00;35.37;100298.75;1766270;78;21564;-70
2022/09/07 08:44:05;;;;;;;2.83;1.92;;;;;;;18.05;35.54;100279.85;1760591;78;21492;-68
2022/09/07 08:46:37;;;;;;;4.10;2.40;;;;;;;18.29;35.30;100291.58;1765709;79;21549;-68
2022/09/07 08:49:05;;;;;;;2.77;2.47;;;;;;;18.40;34.75;100285.56;1744853;80;20950;-69
2022/09/07 08:51:56;;;;;;;2.77;2.50;;;;;;;18.46;34.62;100286.97;1760166;79;21596;-70
2022/09/07 08:54:22;;;;;;;3.35;2.10;;;;;;;18.44;34.52;100278.20;1762857;78;21577;-68
2022/09/07 08:56:51;;;;;;;2.62;2.33;;;;;;;18.44;34.82;100283.53;1758065;79;21608;-70
2022/09/07 08:59:25;;;;;;;3.05;2.22;;;;;;;18.40;34.66;100276.25;1769724;79;21828;-74
2022/09/07 09:01:52;;;;;;;2.67;1.98;;;;;;;18.52;34.68;100277.73;1757371;79;21577;-71
2022/09/07 09:04:28;;;;;;;2.30;2.10;;;;;;;18.71;34.31;100271.55;1727397;80;21569;-69
2022/09/07 09:07:20;;;;;;;4.25;2.58;;;;;;;18.88;34.04;100265.61;1736742;79;21597;-69
2022/09/07 09:10:17;;;;;;;3.87;3.17;;;;;;;19.00;34.09;100262.94;1761026;80;21427;-71
2022/09/07 09:13:18;;;;;;;;;;;;;;;19.11;33.87;100265.36;1756983;79;21809;-68
2022/09/07 09:16:01;;;;;;;4.08;2.70;;;;;;;19.28;32.33;100262.38;1765049;79;20416;-71
2022/09/07 09:18:49;;;;;;;5.80;3.47;;;;;;;19.34;33.47;100251.28;1762706;79;21589;-67
2022/09/07 09:21:17;;;;;;;4.55;3.15;;;;;;;19.51;33.52;100250.09;1755819;79;21578;-69
2022/09/07 09:23:46;;;;;;;3.75;3.45;;;;;;;19.60;33.22;100256.61;1760688;79;21635;-71
2022/09/07 09:26:22;;;;;;;3.70;3.40;;;;;;;19.52;33.22;100248.31;1767039;79;21961;-70
2022/09/07 09:28:49;;;;;;;5.65;3.58;;;;;;;19.44;33.28;100251.52;1766442;79;21448;-69
2022/09/07 09:31:20;;;;;;;5.62;3.58;;;;;;;19.36;33.46;100245.36;1753286;79;21541;-69
2022/09/07 09:34:08;;;;;;;9.18;4.37;;;;;;;19.41;33.39;100245.05;1754030;78;21610;-69
2022/09/07 09:36:47;;;;;;;3.87;3.52;;;;;;;19.40;33.08;100245.55;1748983;80;21529;-71
2022/09/07 09:39:35;;;;;;;4.25;3.22;;;;;;;19.42;33.06;100248.95;1754421;78;21691;-71
2022/09/07 09:42:18;;;;;;;6.03;3.22;;;;;;;19.45;32.99;100238.54;1761601;79;20990;-70
2022/09/07 09:44:45;;;;;;;4.30;3.35;;;;;;;19.39;32.83;100238.48;1750244;79;21774;-70
2022/09/07 09:47:31;;;;;;;4.60;3.22;;;;;;;19.41;33.25;100229.05;1749335;78;21462;-70
2022/09/07 09:50:02;;;;;;;3.37;2.83;;;;;;;19.58;32.57;100218.53;1765288;78;20938;-70
2022/09/07 09:52:31;;;;;;;4.55;3.40;;;;;;;19.68;32.28;100211.56;1759557;79;21879;-70
2022/09/07 09:54:59;;;;;;;3.42;2.90;;;;;;;19.78;32.13;100206.47;1760274;79;21519;-70
2022/09/07 09:57:57;;;;;;;3.90;3.45;;;;;;;19.91;31.64;100191.73;1765954;79;21558;-72
2022/09/07 10:00:28;;;;;;;4.22;3.17;;;;;;;19.94;31.75;100206.19;1748982;79;21506;-70
2022/09/07 10:03:16;;;;;;;5.62;3.33;;;;;;;19.93;31.59;100203.14;1743331;79;21501;-70
2022/09/07 10:05:45;;;;;;;3.83;3.05;;;;;;;19.77;31.74;100206.93;1760095;79;22963;-69
2022/09/07 10:08:22;;;;;;;3.10;2.80;;;;;;;19.83;32.00;100205.17;1757788;79;21487;-70
2022/09/07 10:11:01;;;;;;;3.35;3.00;;;;;;;19.97;31.64;100205.98;1767663;79;21630;-67
2022/09/07 10:13:36;;;;;;;3.58;3.10;;;;;;;20.02;31.66;100206.47;1754063;79;20977;-69
2022/09/07 10:16:05;;;;;;;3.20;2.90;;;;;;;20.10;31.40;100204.11;1763191;79;21034;-67
2022/09/07 10:18:37;;;;;;;3.77;2.75;;;;;;;20.26;31.24;100194.96;1764957;79;21567;-69
2022/09/07 10:21:26;;;;;;;3.72;2.70;;;;;;;20.42;31.04;100193.70;1762899;78;21753;-68
2022/09/07 10:24:12;;;;;;;3.35;2.50;;;;;;;20.54;31.00;100195.08;1759557;79;21489;-68
2022/09/07 10:26:43;;;;;;;2.80;2.52;;;;;;;20.55;30.87;100197.64;1778513;78;21492;-69
2022/09/07 10:29:20;;;;;;;3.85;2.75;;;;;;;20.68;30.35;100200.73;1751365;80;21674;-69
2022/09/07 10:32:07;;;;;;;2.77;2.58;;;;;;;20.68;30.39;100190.91;1772312;78;21911;-68
2022/09/07 10:35:04;;;;;;;2.58;2.37;;;;;;;20.70;30.48;100190.31;1753921;80;21550;-68
2022/09/07 10:38:00;;;;;;;4.33;2.85;;;;;;;20.68;30.12;100185.57;1766081;80;21589;-69
2022/09/07 10:40:34;;;;;;;3.25;2.60;;;;;;;20.51;30.00;100184.61;1759018;79;21612;-68
2022/09/07 10:43:22;;;;;;;2.47;2.27;;;;;;;20.43;30.57;100175.84;1762132;79;21487;-66
2022/09/07 10:46:06;;;;;;;2.60;2.17;;;;;;;20.59;30.36;100182.23;1727200;80;21537;-67
2022/09/07 10:48:54;;;;;;;3.12;2.10;;;;;;;20.75;29.92;100172.08;1761037;80;21529;-67
2022/09/07 10:51:32;;;;;;;2.42;2.22;;;;;;;20.73;29.73;100167.84;1760361;80;21645;-66
2022/09/07 10:54:22;;;;;;;2.37;2.17;;;;;;;20.76;29.80;100164.94;1744497;80;21463;-67
2022/09/07 10:57:10;;;;;;;5.22;2.12;;;;;;;20.73;29.85;100166.50;1753173;80;21573;-66
2022/09/07 10:59:54;;;;;;;4.75;2.33;;;;;;;20.80;29.59;100162.39;1765844;79;21908;-67
2022/09/07 11:02:49;;;;;;;4.95;2.10;;;;;;;20.89;29.59;100161.68;1763899;79;21580;-66
2022/09/07 11:05:59;;;;;;;5.35;2.17;;;;;;;21.01;29.17;100149.17;1764266;79;21537;-67
2022/09/07 11:08:37;;;;;;;2.98;2.30;;;;;;;20.99;29.02;100146.61;1748367;79;21576;-68
2022/09/07 11:11:18;;;;;;;2.47;2.20;;;;;;;21.02;28.80;100149.55;1771930;79;20925;-68
2022/09/07 11:13:46;;;;;;;2.37;2.17;;;;;;;21.02;28.87;100140.66;1765805;78;21751;-66
2022/09/07 11:16:19;;;;;;;6.83;2.42;;;;;;;21.14;28.88;100149.91;1766447;79;21497;-67
2022/09/07 11:19:02;;;;;;;2.87;2.35;;;;;;;21.19;28.62;100132.14;1762545;79;21666;-68
2022/09/07 11:21:36;;;;;;;2.40;2.05;;;;;;;21.17;28.64;100138.11;1764166;79;21530;-66
2022/09/07 11:24:12;;;;;;;5.92;2.00;;;;;;;21.09;28.52;100136.04;1764444;79;21429;-65
2022/09/07 11:26:42;;;;;;;;;;;;;;;21.09;28.44;100137.88;1774192;78;22097;-66
2022/09/07 11:29:35;;;;;;;4.55;2.05;;;;;;;21.19;27.91;100130.34;1772253;77;20570;-68
2022/09/07 11:32:18;;;;;;;2.25;1.85;;;;;;;21.30;28.41;100127.29;1733196;80;21447;-67
2022/09/07 11:35:08;;;;;;;4.70;2.08;;;;;;;21.42;28.28;100128.12;1749881;80;21814;-67
2022/09/07 11:37:47;;;;;;;2.95;2.20;;;;;;;21.48;28.11;100123.17;1740689;80;21584;-67
2022/09/07 11:40:36;;;;;;;;;;;;;;;21.55;28.21;100131.56;1742427;80;21908;-66
2022/09/07 11:43:14;;;;;;;4.22;2.22;;;;;;;21.53;26.85;100125.46;1744446;80;20427;-66
2022/09/07 11:45:45;;;;;;;4.45;2.05;;;;;;;21.42;28.13;100122.30;1740443;80;21548;-64
2022/09/07 11:48:38;;;;;;;2.60;2.00;;;;;;;21.45;27.79;100107.86;1738987;80;21457;-66
2022/09/07 11:51:20;;;;;;;2.08;1.90;;;;;;;21.41;27.77;100102.36;1717649;80;21577;-67
2022/09/07 11:53:54;;;;;;;2.17;1.98;;;;;;;21.29;27.75;100106.39;1741215;80;21751;-66
2022/09/07 11:56:32;;;;;;;2.40;2.10;;;;;;;21.47;27.69;100097.87;1747880;80;21502;-66